Terminal Aerodrome Forecast
Issued by NWS Portland, OR

Home | Current Version | Previous Version | Text Only | Print | Product List | Glossary On
Versions: 1 2 3 4 5 6 7 8 9 10 11 12 13 14 15 16 17 18 19 20 21 22
000
FTUS46 KPQR 231734
TAFTTD
TAF
KTTD 231734Z 2318/2418 VRB03KT P6SM OVC040
     FM232000 30006KT P6SM SCT045
     FM240500 VRB03KT P6SM SCT250
     FM241300 00000KT P6SM OVC015=

USA.gov is the U.S. government's official web portal to all federal, state and local government web resources and services.